sensor_id;sensor_type;location;lat;lon;timestamp;pressure;altitude;pressure_sealevel;temperature;humidity
64133;BME280;53116;52.020;4.446;2022-09-16T00:00:23;101130.06;;;22.38;51.37
64133;BME280;53116;52.020;4.446;2022-09-16T00:02:51;101121.31;;;22.38;51.64
64133;BME280;53116;52.020;4.446;2022-09-16T00:05:16;101125.59;;;22.39;51.86
64133;BME280;53116;52.020;4.446;2022-09-16T00:07:41;101115.03;;;22.39;51.49
64133;BME280;53116;52.020;4.446;2022-09-16T00:10:07;101122.00;;;22.40;51.88
64133;BME280;53116;52.020;4.446;2022-09-16T00:12:32;101120.31;;;22.39;51.98
64133;BME280;53116;52.020;4.446;2022-09-16T00:14:57;101117.69;;;22.39;51.49
64133;BME280;53116;52.020;4.446;2022-09-16T00:17:23;101126.44;;;22.39;51.96
64133;BME280;53116;52.020;4.446;2022-09-16T00:19:48;101121.31;;;22.38;51.78
64133;BME280;53116;52.020;4.446;2022-09-16T00:22:15;101136.19;;;22.39;51.89
64133;BME280;53116;52.020;4.446;2022-09-16T00:24:41;101128.25;;;22.39;51.86
64133;BME280;53116;52.020;4.446;2022-09-16T00:27:06;101131.88;;;22.38;51.91
64133;BME280;53116;52.020;4.446;2022-09-16T00:29:31;101123.94;;;22.38;51.65
64133;BME280;53116;52.020;4.446;2022-09-16T00:31:57;101127.41;;;22.38;51.89
64133;BME280;53116;52.020;4.446;2022-09-16T00:34:24;101129.09;;;22.39;51.72
64133;BME280;53116;52.020;4.446;2022-09-16T00:36:49;101128.25;;;22.39;51.85
64133;BME280;53116;52.020;4.446;2022-09-16T00:39:14;101128.25;;;22.39;51.74
64133;BME280;53116;52.020;4.446;2022-09-16T00:41:40;101122.13;;;22.38;51.66
64133;BME280;53116;52.020;4.446;2022-09-16T00:44:48;101125.59;;;22.39;51.90
64133;BME280;53116;52.020;4.446;2022-09-16T00:46:52;101113.38;;;22.38;52.29
64133;BME280;53116;52.020;4.446;2022-09-16T00:49:25;101117.78;;;22.37;51.84
64133;BME280;53116;52.020;4.446;2022-09-16T00:51:55;101119.50;;;22.38;51.77
64133;BME280;53116;52.020;4.446;2022-09-16T00:54:21;101121.31;;;22.38;51.86
64133;BME280;53116;52.020;4.446;2022-09-16T00:56:50;101117.78;;;22.37;51.98
64133;BME280;53116;52.020;4.446;2022-09-16T00:59:20;101125.72;;;22.37;52.08
64133;BME280;53116;52.020;4.446;2022-09-16T01:01:49;101118.66;;;22.38;52.03
64133;BME280;53116;52.020;4.446;2022-09-16T01:04:19;101123.94;;;22.38;52.13
64133;BME280;53116;52.020;4.446;2022-09-16T01:06:47;101128.38;;;22.37;51.84
64133;BME280;53116;52.020;4.446;2022-09-16T01:09:14;101133.66;;;22.37;51.84
64133;BME280;53116;52.020;4.446;2022-09-16T01:11:39;101138.94;;;22.37;51.89
64133;BME280;53116;52.020;4.446;2022-09-16T01:14:05;101133.66;;;22.37;52.05
64133;BME280;53116;52.020;4.446;2022-09-16T01:17:09;101132.72;;;22.38;51.91
64133;BME280;53116;52.020;4.446;2022-09-16T01:31:42;101140.75;;;22.37;51.96
64133;BME280;53116;52.020;4.446;2022-09-16T01:37:28;101143.41;;;22.37;51.77
64133;BME280;53116;52.020;4.446;2022-09-16T01:40:13;101142.59;;;22.36;51.92
64133;BME280;53116;52.020;4.446;2022-09-16T01:42:48;101146.06;;;22.37;52.16
64133;BME280;53116;52.020;4.446;2022-09-16T01:45:28;101144.38;;;22.36;51.98
64133;BME280;53116;52.020;4.446;2022-09-16T01:50:36;101142.69;;;22.35;52.07
64133;BME280;53116;52.020;4.446;2022-09-16T01:56:17;101153.16;;;22.36;52.18
64133;BME280;53116;52.020;4.446;2022-09-16T01:59:19;101148.69;;;22.37;52.25
64133;BME280;53116;52.020;4.446;2022-09-16T02:02:12;101141.72;;;22.36;52.41
64133;BME280;53116;52.020;4.446;2022-09-16T02:05:04;101139.06;;;22.36;52.12
64133;BME280;53116;52.020;4.446;2022-09-16T02:07:32;101139.94;;;22.36;52.06
64133;BME280;53116;52.020;4.446;2022-09-16T02:10:09;101140.88;;;22.35;52.33
64133;BME280;53116;52.020;4.446;2022-09-16T02:12:40;101142.59;;;22.36;52.10
64133;BME280;53116;52.020;4.446;2022-09-16T02:15:09;101146.06;;;22.37;52.50
64133;BME280;53116;52.020;4.446;2022-09-16T02:17:41;101147.00;;;22.36;52.11
64133;BME280;53116;52.020;4.446;2022-09-16T02:20:14;101146.19;;;22.35;52.26
64133;BME280;53116;52.020;4.446;2022-09-16T02:22:51;101155.81;;;22.36;52.62
64133;BME280;53116;52.020;4.446;2022-09-16T02:25:19;101161.09;;;22.36;52.31
64133;BME280;53116;52.020;4.446;2022-09-16T02:27:47;101175.16;;;22.37;52.31
64133;BME280;53116;52.020;4.446;2022-09-16T02:30:19;101179.59;;;22.36;52.33
64133;BME280;53116;52.020;4.446;2022-09-16T02:32:46;101164.56;;;22.37;52.30
64133;BME280;53116;52.020;4.446;2022-09-16T02:35:16;101164.56;;;22.37;52.29
64133;BME280;53116;52.020;4.446;2022-09-16T02:37:57;101156.63;;;22.37;52.57
64133;BME280;53116;52.020;4.446;2022-09-16T02:40:27;101139.06;;;22.36;52.60
64133;BME280;53116;52.020;4.446;2022-09-16T02:42:56;101147.88;;;22.36;52.46
64133;BME280;53116;52.020;4.446;2022-09-16T02:45:25;101139.06;;;22.36;52.37
64133;BME280;53116;52.020;4.446;2022-09-16T02:48:03;101147.88;;;22.36;52.58
64133;BME280;53116;52.020;4.446;2022-09-16T02:50:43;101154.00;;;22.37;52.51
64133;BME280;53116;52.020;4.446;2022-09-16T02:53:45;101152.19;;;22.37;52.47
64133;BME280;53116;52.020;4.446;2022-09-16T02:56:26;101158.34;;;22.38;52.33
64133;BME280;53116;52.020;4.446;2022-09-16T02:58:54;101144.25;;;22.37;52.24
64133;BME280;53116;52.020;4.446;2022-09-16T03:01:21;101139.94;;;22.36;52.37
64133;BME280;53116;52.020;4.446;2022-09-16T03:03:47;101133.66;;;22.37;52.45
64133;BME280;53116;52.020;4.446;2022-09-16T03:06:23;101129.34;;;22.36;52.53
64133;BME280;53116;52.020;4.446;2022-09-16T03:08:50;101135.47;;;22.37;52.37
64133;BME280;53116;52.020;4.446;2022-09-16T03:14:27;101132.84;;;22.37;52.55
64133;BME280;53116;52.020;4.446;2022-09-16T03:25:12;101135.47;;;22.37;52.66
64133;BME280;53116;52.020;4.446;2022-09-16T03:27:50;101134.66;;;22.36;52.84
64133;BME280;53116;52.020;4.446;2022-09-16T03:30:19;101124.06;;;22.36;52.76
64133;BME280;53116;52.020;4.446;2022-09-16T03:32:52;101130.19;;;22.37;52.57
64133;BME280;53116;52.020;4.446;2022-09-16T03:35:25;101130.19;;;22.37;52.50
64133;BME280;53116;52.020;4.446;2022-09-16T03:37:54;101127.53;;;22.37;52.64
64133;BME280;53116;52.020;4.446;2022-09-16T03:40:22;101128.50;;;22.36;52.49
64133;BME280;53116;52.020;4.446;2022-09-16T03:42:48;101132.00;;;22.36;52.48
64133;BME280;53116;52.020;4.446;2022-09-16T03:45:15;101132.00;;;22.36;52.53
64133;BME280;53116;52.020;4.446;2022-09-16T03:47:42;101132.00;;;22.36;52.65
64133;BME280;53116;52.020;4.446;2022-09-16T03:50:09;101139.06;;;22.36;52.60
64133;BME280;53116;52.020;4.446;2022-09-16T03:52:34;101139.06;;;22.36;52.76
64133;BME280;53116;52.020;4.446;2022-09-16T03:55:00;101137.28;;;22.36;52.79
64133;BME280;53116;52.020;4.446;2022-09-16T03:57:25;101139.06;;;22.36;52.72
64133;BME280;53116;52.020;4.446;2022-09-16T03:59:52;101146.06;;;22.37;52.63
64133;BME280;53116;52.020;4.446;2022-09-16T04:02:18;101135.47;;;22.37;52.75
64133;BME280;53116;52.020;4.446;2022-09-16T04:04:43;101137.28;;;22.36;52.85
64133;BME280;53116;52.020;4.446;2022-09-16T04:07:08;101129.34;;;22.36;52.79
64133;BME280;53116;52.020;4.446;2022-09-16T04:09:34;101130.19;;;22.37;52.81
64133;BME280;53116;52.020;4.446;2022-09-16T04:12:02;101132.00;;;22.36;52.87
64133;BME280;53116;52.020;4.446;2022-09-16T04:14:27;101117.91;;;22.36;52.88
64133;BME280;53116;52.020;4.446;2022-09-16T04:16:53;101121.41;;;22.36;52.54
64133;BME280;53116;52.020;4.446;2022-09-16T04:19:19;101117.91;;;22.36;52.42
64133;BME280;53116;52.020;4.446;2022-09-16T04:21:44;101113.97;;;22.30;51.54
64133;BME280;53116;52.020;4.446;2022-09-16T04:24:10;101109.63;;;22.18;50.29
64133;BME280;53116;52.020;4.446;2022-09-16T04:26:35;101115.38;;;22.12;50.29
64133;BME280;53116;52.020;4.446;2022-09-16T04:29:00;101110.00;;;22.02;50.06
64133;BME280;53116;52.020;4.446;2022-09-16T04:31:26;101104.47;;;21.94;50.18
64133;BME280;53116;52.020;4.446;2022-09-16T04:33:51;101099.91;;;21.84;50.36
64133;BME280;53116;52.020;4.446;2022-09-16T04:36:18;101114.75;;;21.74;50.19
64133;BME280;53116;52.020;4.446;2022-09-16T04:38:45;101116.94;;;21.69;50.56
64133;BME280;53116;52.020;4.446;2022-09-16T04:41:20;101117.88;;;21.68;50.94
64133;BME280;53116;52.020;4.446;2022-09-16T04:43:49;101117.88;;;21.68;51.37
64133;BME280;53116;52.020;4.446;2022-09-16T04:46:17;101117.88;;;21.68;51.82
64133;BME280;53116;52.020;4.446;2022-09-16T04:48:42;101116.94;;;21.69;51.90
64133;BME280;53116;52.020;4.446;2022-09-16T04:51:10;101117.75;;;21.69;52.02
64133;BME280;53116;52.020;4.446;2022-09-16T04:53:37;101115.13;;;21.69;52.31
64133;BME280;53116;52.020;4.446;2022-09-16T04:56:12;101102.75;;;21.70;52.39
64133;BME280;53116;52.020;4.446;2022-09-16T04:58:40;101116.69;;;21.72;52.51
64133;BME280;53116;52.020;4.446;2022-09-16T05:01:14;101111.41;;;21.72;52.79
64133;BME280;53116;52.020;4.446;2022-09-16T05:03:44;101115.75;;;21.73;52.66
64133;BME280;53116;52.020;4.446;2022-09-16T05:06:13;101115.63;;;21.75;52.84
64133;BME280;53116;52.020;4.446;2022-09-16T05:08:38;101129.56;;;21.77;52.92
64133;BME280;53116;52.020;4.446;2022-09-16T05:11:09;101125.97;;;21.78;52.95
64133;BME280;53116;52.020;4.446;2022-09-16T05:13:36;101122.34;;;21.79;52.85
64133;BME280;53116;52.020;4.446;2022-09-16T05:16:06;101124.50;;;21.74;51.36
64133;BME280;53116;52.020;4.446;2022-09-16T05:18:33;101116.44;;;21.64;50.76
64133;BME280;53116;52.020;4.446;2022-09-16T05:21:00;101124.59;;;21.49;49.30
64133;BME280;53116;52.020;4.446;2022-09-16T05:23:27;101111.81;;;21.43;49.33
64133;BME280;53116;52.020;4.446;2022-09-16T05:25:53;101117.56;;;21.37;48.96
64133;BME280;53116;52.020;4.446;2022-09-16T05:28:19;101120.75;;;21.29;49.02
64133;BME280;53116;52.020;4.446;2022-09-16T05:30:44;101122.09;;;21.24;48.71
64133;BME280;53116;52.020;4.446;2022-09-16T05:33:10;101125.28;;;21.16;48.83
64133;BME280;53116;52.020;4.446;2022-09-16T05:35:35;101130.16;;;21.09;48.54
64133;BME280;53116;52.020;4.446;2022-09-16T05:38:00;101134.22;;;21.02;48.66
64133;BME280;53116;52.020;4.446;2022-09-16T05:40:26;101147.75;;;20.97;49.18
64133;BME280;53116;52.020;4.446;2022-09-16T05:42:52;101147.88;;;20.96;49.70
64133;BME280;53116;52.020;4.446;2022-09-16T05:45:17;101148.47;;;20.99;50.26
64133;BME280;53116;52.020;4.446;2022-09-16T05:47:49;101142.16;;;21.02;50.49
64133;BME280;53116;52.020;4.446;2022-09-16T05:50:15;101130.66;;;21.03;50.76
64133;BME280;53116;52.020;4.446;2022-09-16T05:52:40;101136.63;;;21.05;50.89
64133;BME280;53116;52.020;4.446;2022-09-16T05:55:06;101139.06;;;21.08;51.26
64133;BME280;53116;52.020;4.446;2022-09-16T05:57:31;101153.81;;;21.11;51.46
64133;BME280;53116;52.020;4.446;2022-09-16T05:59:57;101164.13;;;21.14;51.64
64133;BME280;53116;52.020;4.446;2022-09-16T06:02:22;101164.88;;;21.16;51.64
64133;BME280;53116;52.020;4.446;2022-09-16T06:04:47;101154.09;;;21.19;51.57
64133;BME280;53116;52.020;4.446;2022-09-16T06:07:13;101164.44;;;21.22;51.47
64133;BME280;53116;52.020;4.446;2022-09-16T06:09:38;101165.16;;;21.24;51.63
64133;BME280;53116;52.020;4.446;2022-09-16T06:12:04;101161.44;;;21.27;51.54
64133;BME280;53116;52.020;4.446;2022-09-16T06:14:29;101163.97;;;21.28;51.53
64133;BME280;53116;52.020;4.446;2022-09-16T06:16:55;101162.06;;;21.30;51.42
64133;BME280;53116;52.020;4.446;2022-09-16T06:19:20;101163.63;;;21.33;51.72
64133;BME280;53116;52.020;4.446;2022-09-16T06:21:46;101156.56;;;21.33;51.27
64133;BME280;53116;52.020;4.446;2022-09-16T06:24:12;101160.75;;;21.36;51.43
64133;BME280;53116;52.020;4.446;2022-09-16T06:26:40;101156.22;;;21.38;51.34
64133;BME280;53116;52.020;4.446;2022-09-16T06:29:06;101154.28;;;21.40;51.32
64133;BME280;53116;52.020;4.446;2022-09-16T06:31:32;101162.94;;;21.42;51.27
64133;BME280;53116;52.020;4.446;2022-09-16T06:33:58;101162.00;;;21.43;51.31
64133;BME280;53116;52.020;4.446;2022-09-16T06:36:26;101166.19;;;21.46;51.09
64133;BME280;53116;52.020;4.446;2022-09-16T06:38:52;101161.66;;;21.48;51.01
64133;BME280;53116;52.020;4.446;2022-09-16T06:41:19;101158.91;;;21.49;51.08
64133;BME280;53116;52.020;4.446;2022-09-16T06:43:45;101157.00;;;21.51;51.13
64133;BME280;53116;52.020;4.446;2022-09-16T06:46:15;101156.06;;;21.52;50.96
64133;BME280;53116;52.020;4.446;2022-09-16T06:48:47;101154.84;;;21.57;50.85
64133;BME280;53116;52.020;4.446;2022-09-16T06:51:16;101152.94;;;21.59;51.04
64133;BME280;53116;52.020;4.446;2022-09-16T06:53:43;101144.78;;;21.62;51.08
64133;BME280;53116;52.020;4.446;2022-09-16T06:56:12;101147.16;;;21.65;51.03
64133;BME280;53116;52.020;4.446;2022-09-16T06:58:40;101147.69;;;21.70;51.01
64133;BME280;53116;52.020;4.446;2022-09-16T07:01:08;101138.66;;;21.73;50.97
64133;BME280;53116;52.020;4.446;2022-09-16T07:03:37;101136.53;;;21.78;51.03
64133;BME280;53116;52.020;4.446;2022-09-16T07:06:03;101140.72;;;21.80;51.01
64133;BME280;53116;52.020;4.446;2022-09-16T07:08:30;101131.72;;;21.83;50.91
64133;BME280;53116;52.020;4.446;2022-09-16T07:10:59;101143.59;;;21.88;50.63
64133;BME280;53116;52.020;4.446;2022-09-16T07:13:25;101154.69;;;21.94;50.44
64133;BME280;53116;52.020;4.446;2022-09-16T07:15:51;101161.50;;;21.96;50.57
64133;BME280;53116;52.020;4.446;2022-09-16T07:18:17;101169.31;;;21.98;50.29
64133;BME280;53116;52.020;4.446;2022-09-16T07:20:42;101172.72;;;22.00;50.15
64133;BME280;53116;52.020;4.446;2022-09-16T07:23:07;101162.97;;;22.00;50.49
64133;BME280;53116;52.020;4.446;2022-09-16T07:25:33;101160.22;;;22.02;50.35
64133;BME280;53116;52.020;4.446;2022-09-16T07:27:59;101161.88;;;22.03;50.51
64133;BME280;53116;52.020;4.446;2022-09-16T07:30:24;101162.75;;;22.03;50.40
64133;BME280;53116;52.020;4.446;2022-09-16T07:32:50;101170.56;;;22.05;50.70
64133;BME280;53116;52.020;4.446;2022-09-16T07:35:16;101167.03;;;22.04;50.31
64133;BME280;53116;52.020;4.446;2022-09-16T07:37:41;101166.22;;;22.04;49.34
64133;BME280;53116;52.020;4.446;2022-09-16T07:40:06;101168.97;;;22.02;48.82
64133;BME280;53116;52.020;4.446;2022-09-16T07:42:32;101173.66;;;21.99;48.59
64133;BME280;53116;52.020;4.446;2022-09-16T07:44:57;101174.84;;;21.95;48.59
64133;BME280;53116;52.020;4.446;2022-09-16T07:47:23;101173.31;;;21.92;48.30
64133;BME280;53116;52.020;4.446;2022-09-16T07:49:48;101175.19;;;21.90;48.52
64133;BME280;53116;52.020;4.446;2022-09-16T07:52:19;101169.19;;;21.88;48.67
64133;BME280;53116;52.020;4.446;2022-09-16T07:54:45;101165.72;;;21.87;48.64
64133;BME280;53116;52.020;4.446;2022-09-16T07:57:10;101169.44;;;21.85;48.69
64133;BME280;53116;52.020;4.446;2022-09-16T07:59:35;101166.78;;;21.85;48.93
64133;BME280;53116;52.020;4.446;2022-09-16T08:02:00;101171.38;;;21.83;48.96
64133;BME280;53116;52.020;4.446;2022-09-16T08:04:26;101169.66;;;21.82;49.16
64133;BME280;53116;52.020;4.446;2022-09-16T08:06:51;101181.22;;;21.81;49.15
64133;BME280;53116;52.020;4.446;2022-09-16T08:09:16;101192.63;;;21.81;49.64
64133;BME280;53116;52.020;4.446;2022-09-16T08:11:42;101204.75;;;21.84;50.28
64133;BME280;53116;52.020;4.446;2022-09-16T08:14:07;101210.88;;;21.84;50.37
64133;BME280;53116;52.020;4.446;2022-09-16T08:16:32;101222.06;;;21.88;51.34
64133;BME280;53116;52.020;4.446;2022-09-16T08:18:57;101218.13;;;21.94;51.10
64133;BME280;53116;52.020;4.446;2022-09-16T08:21:25;101216.91;;;21.98;51.57
64133;BME280;53116;52.020;4.446;2022-09-16T08:23:52;101213.78;;;22.04;51.69
64133;BME280;53116;52.020;4.446;2022-09-16T08:26:18;101207.31;;;22.08;51.85
64133;BME280;53116;52.020;4.446;2022-09-16T08:28:45;101213.94;;;22.14;51.88
64133;BME280;53116;52.020;4.446;2022-09-16T08:31:11;101214.56;;;22.17;51.97
64133;BME280;53116;52.020;4.446;2022-09-16T08:33:40;101211.41;;;22.23;52.15
64133;BME280;53116;52.020;4.446;2022-09-16T08:36:26;101225.13;;;22.29;52.24
64133;BME280;53116;52.020;4.446;2022-09-16T08:38:54;101220.47;;;22.32;52.04
64133;BME280;53116;52.020;4.446;2022-09-16T08:41:44;101240.56;;;22.35;51.45
64133;BME280;53116;52.020;4.446;2022-09-16T08:44:39;101255.56;;;22.34;50.67
64133;BME280;53116;52.020;4.446;2022-09-16T08:49:53;101266.16;;;22.34;50.71
64133;BME280;53116;52.020;4.446;2022-09-16T08:52:31;101252.56;;;22.39;50.89
64133;BME280;53116;52.020;4.446;2022-09-16T08:57:30;101241.28;;;22.48;51.01
64133;BME280;53116;52.020;4.446;2022-09-16T08:59:59;101240.09;;;22.52;51.30
64133;BME280;53116;52.020;4.446;2022-09-16T09:05:12;101249.22;;;22.59;51.55
64133;BME280;53116;52.020;4.446;2022-09-16T09:08:00;101251.50;;;22.64;51.82
64133;BME280;53116;52.020;4.446;2022-09-16T09:10:41;101252.09;;;22.68;51.42
64133;BME280;53116;52.020;4.446;2022-09-16T09:15:57;101256.66;;;22.77;51.87
64133;BME280;53116;52.020;4.446;2022-09-16T09:21:56;101263.16;;;22.84;51.91
64133;BME280;53116;52.020;4.446;2022-09-16T09:24:45;101279.63;;;22.88;51.71
64133;BME280;53116;52.020;4.446;2022-09-16T09:27:28;101280.22;;;22.91;51.98
64133;BME280;53116;52.020;4.446;2022-09-16T09:35:26;101278.78;;;22.98;51.77
64133;BME280;53116;52.020;4.446;2022-09-16T09:40:48;101273.94;;;23.04;51.67
64133;BME280;53116;52.020;4.446;2022-09-16T09:43:23;101266.72;;;23.06;51.65
64133;BME280;53116;52.020;4.446;2022-09-16T09:46:01;101258.66;;;23.07;51.70
64133;BME280;53116;52.020;4.446;2022-09-16T09:48:44;101266.38;;;23.10;51.94
64133;BME280;53116;52.020;4.446;2022-09-16T09:51:20;101253.72;;;23.14;52.00
64133;BME280;53116;52.020;4.446;2022-09-16T09:53:55;101247.34;;;23.05;49.85
64133;BME280;53116;52.020;4.446;2022-09-16T09:56:26;101255.19;;;22.95;50.30
64133;BME280;53116;52.020;4.446;2022-09-16T09:59:00;101249.06;;;22.84;49.89
64133;BME280;53116;52.020;4.446;2022-09-16T10:01:26;101247.28;;;22.73;50.33
64133;BME280;53116;52.020;4.446;2022-09-16T10:03:52;101253.06;;;22.67;50.46
64133;BME280;53116;52.020;4.446;2022-09-16T10:06:25;101256.53;;;22.67;49.89
64133;BME280;53116;52.020;4.446;2022-09-16T10:08:54;101249.56;;;22.66;49.95
64133;BME280;53116;52.020;4.446;2022-09-16T10:11:28;101248.72;;;22.66;49.92
64133;BME280;53116;52.020;4.446;2022-09-16T10:13:57;101248.72;;;22.66;50.29
64133;BME280;53116;52.020;4.446;2022-09-16T10:16:34;101268.94;;;22.67;50.05
64133;BME280;53116;52.020;4.446;2022-09-16T10:19:05;101255.72;;;22.67;50.08
64133;BME280;53116;52.020;4.446;2022-09-16T10:22:10;101250.31;;;22.68;50.24
64133;BME280;53116;52.020;4.446;2022-09-16T10:24:42;101240.66;;;22.67;50.15
64133;BME280;53116;52.020;4.446;2022-09-16T10:27:21;101242.47;;;22.67;49.99
64133;BME280;53116;52.020;4.446;2022-09-16T10:29:47;101241.50;;;22.68;50.10
64133;BME280;53116;52.020;4.446;2022-09-16T10:32:26;101239.84;;;22.67;50.42
64133;BME280;53116;52.020;4.446;2022-09-16T10:34:52;101239.84;;;22.67;50.67
64133;BME280;53116;52.020;4.446;2022-09-16T10:37:18;101241.50;;;22.68;50.64
64133;BME280;53116;52.020;4.446;2022-09-16T10:39:50;101238.84;;;22.68;50.42
64133;BME280;53116;52.020;4.446;2022-09-16T10:42:21;101238.72;;;22.69;50.20
64133;BME280;53116;52.020;4.446;2022-09-16T10:44:48;101234.41;;;22.68;50.28
64133;BME280;53116;52.020;4.446;2022-09-16T10:47:21;101229.84;;;22.70;50.48
64133;BME280;53116;52.020;4.446;2022-09-16T10:49:51;101236.94;;;22.70;50.09
64133;BME280;53116;52.020;4.446;2022-09-16T10:52:20;101236.09;;;22.69;49.98
64133;BME280;53116;52.020;4.446;2022-09-16T10:54:46;101236.94;;;22.70;49.93
64133;BME280;53116;52.020;4.446;2022-09-16T10:57:28;101237.06;;;22.68;49.08
64133;BME280;53116;52.020;4.446;2022-09-16T11:05:52;101242.47;;;22.67;49.44
64133;BME280;53116;52.020;4.446;2022-09-16T11:12:05;101251.50;;;22.64;48.50
64133;BME280;53116;52.020;4.446;2022-09-16T11:14:56;101248.84;;;22.64;48.40
64133;BME280;53116;52.020;4.446;2022-09-16T11:17:33;101247.16;;;22.63;48.27
64133;BME280;53116;52.020;4.446;2022-09-16T11:20:33;101252.56;;;22.61;47.87
64133;BME280;53116;52.020;4.446;2022-09-16T11:23:52;101244.75;;;22.60;47.75
64133;BME280;53116;52.020;4.446;2022-09-16T11:31:39;101272.31;;;22.57;47.53
64133;BME280;53116;52.020;4.446;2022-09-16T11:34:32;101272.31;;;22.57;48.76
64133;BME280;53116;52.020;4.446;2022-09-16T11:40:05;101272.06;;;22.60;49.01
64133;BME280;53116;52.020;4.446;2022-09-16T11:42:37;101277.34;;;22.60;49.15
64133;BME280;53116;52.020;4.446;2022-09-16T11:45:35;101273.84;;;22.60;49.22
64133;BME280;53116;52.020;4.446;2022-09-16T11:51:06;101279.03;;;22.61;49.73
64133;BME280;53116;52.020;4.446;2022-09-16T11:53:45;101275.44;;;22.63;50.11
64133;BME280;53116;52.020;4.446;2022-09-16T11:56:46;101278.06;;;22.63;50.22
64133;BME280;53116;52.020;4.446;2022-09-16T11:59:27;101275.44;;;22.63;50.36
64133;BME280;53116;52.020;4.446;2022-09-16T12:05:05;101269.06;;;22.65;50.47
64133;BME280;53116;52.020;4.446;2022-09-16T12:07:39;101274.34;;;22.65;50.40
64133;BME280;53116;52.020;4.446;2022-09-16T12:10:24;101277.00;;;22.65;50.16
64133;BME280;53116;52.020;4.446;2022-09-16T12:13:04;101277.84;;;22.66;50.19
64133;BME280;53116;52.020;4.446;2022-09-16T12:16:04;101282.19;;;22.67;50.28
64133;BME280;53116;52.020;4.446;2022-09-16T12:18:43;101287.47;;;22.67;50.75
64133;BME280;53116;52.020;4.446;2022-09-16T12:26:49;101308.16;;;22.73;50.52
64133;BME280;53116;52.020;4.446;2022-09-16T12:29:28;101306.47;;;22.72;50.26
64133;BME280;53116;52.020;4.446;2022-09-16T12:32:04;101313.44;;;22.73;50.33
64133;BME280;53116;52.020;4.446;2022-09-16T12:34:52;101323.06;;;22.74;50.25
64133;BME280;53116;52.020;4.446;2022-09-16T12:37:30;101329.22;;;22.74;50.03
64133;BME280;53116;52.020;4.446;2022-09-16T12:39:59;101327.41;;;22.75;50.58
64133;BME280;53116;52.020;4.446;2022-09-16T12:43:05;101323.78;;;22.76;49.96
64133;BME280;53116;52.020;4.446;2022-09-16T12:45:58;101321.13;;;22.76;49.89
64133;BME280;53116;52.020;4.446;2022-09-16T12:57:27;101309.81;;;22.74;50.15
64133;BME280;53116;52.020;4.446;2022-09-16T13:00:06;101314.28;;;22.73;49.88
64133;BME280;53116;52.020;4.446;2022-09-16T13:02:56;101307.28;;;22.72;49.81
64133;BME280;53116;52.020;4.446;2022-09-16T13:05:32;101305.41;;;22.74;50.46
64133;BME280;53116;52.020;4.446;2022-09-16T13:08:23;101299.00;;;22.77;50.38
64133;BME280;53116;52.020;4.446;2022-09-16T13:11:01;101292.75;;;22.78;50.88
64133;BME280;53116;52.020;4.446;2022-09-16T13:13:41;101294.28;;;22.80;51.37
64133;BME280;53116;52.020;4.446;2022-09-16T13:16:07;101293.22;;;22.83;51.50
64133;BME280;53116;52.020;4.446;2022-09-16T13:18:45;101306.22;;;22.86;51.80
64133;BME280;53116;52.020;4.446;2022-09-16T13:23:44;101317.16;;;22.93;51.80
64133;BME280;53116;52.020;4.446;2022-09-16T13:26:10;101297.56;;;22.95;51.88
64133;BME280;53116;52.020;4.446;2022-09-16T13:33:35;101284.66;;;23.02;52.20
64133;BME280;53116;52.020;4.446;2022-09-16T13:38:38;101288.66;;;23.08;52.10
64133;BME280;53116;52.020;4.446;2022-09-16T13:41:05;101279.63;;;23.10;51.95
64133;BME280;53116;52.020;4.446;2022-09-16T13:43:34;101282.16;;;23.12;52.07
64133;BME280;53116;52.020;4.446;2022-09-16T13:46:30;101272.25;;;23.14;52.13
64133;BME280;53116;52.020;4.446;2022-09-16T13:51:29;101272.88;;;23.18;52.58
64133;BME280;53116;52.020;4.446;2022-09-16T13:53:56;101269.13;;;23.20;52.26
64133;BME280;53116;52.020;4.446;2022-09-16T13:59:19;101265.53;;;23.10;50.05
64133;BME280;53116;52.020;4.446;2022-09-16T14:02:09;101262.44;;;22.93;49.54
64133;BME280;53116;52.020;4.446;2022-09-16T14:07:25;101263.88;;;22.64;49.04
64133;BME280;53116;52.020;4.446;2022-09-16T14:10:02;101271.56;;;22.44;48.96
64133;BME280;53116;52.020;4.446;2022-09-16T14:12:52;101267.84;;;22.35;48.31
64133;BME280;53116;52.020;4.446;2022-09-16T14:15:21;101280.47;;;22.32;49.23
64133;BME280;53116;52.020;4.446;2022-09-16T14:17:50;101275.63;;;22.25;48.57
64133;BME280;53116;52.020;4.446;2022-09-16T14:20:20;101273.56;;;22.18;49.03
64133;BME280;53116;52.020;4.446;2022-09-16T14:22:46;101277.38;;;22.14;48.43
64133;BME280;53116;52.020;4.446;2022-09-16T14:30:34;101267.38;;;21.95;48.96
64133;BME280;53116;52.020;4.446;2022-09-16T14:33:00;101261.69;;;21.88;48.99
64133;BME280;53116;52.020;4.446;2022-09-16T14:35:26;101266.38;;;21.84;48.95
64133;BME280;53116;52.020;4.446;2022-09-16T14:38:03;101272.63;;;21.83;48.34
64133;BME280;53116;52.020;4.446;2022-09-16T14:40:29;101275.50;;;21.80;48.31
64133;BME280;53116;52.020;4.446;2022-09-16T14:43:13;101259.25;;;21.74;46.52
64133;BME280;53116;52.020;4.446;2022-09-16T14:45:44;101262.72;;;21.74;47.55
64133;BME280;53116;52.020;4.446;2022-09-16T14:48:11;101264.53;;;21.74;47.61
64133;BME280;53116;52.020;4.446;2022-09-16T14:50:41;101262.72;;;21.74;47.98
64133;BME280;53116;52.020;4.446;2022-09-16T14:53:26;101253.84;;;21.75;47.04
64133;BME280;53116;52.020;4.446;2022-09-16T14:55:52;101265.38;;;21.74;46.85
64133;BME280;53116;52.020;4.446;2022-09-16T14:58:19;101250.38;;;21.75;47.07
64133;BME280;53116;52.020;4.446;2022-09-16T15:03:23;101266.69;;;21.68;46.96
64133;BME280;53116;52.020;4.446;2022-09-16T15:05:51;101252.84;;;21.65;46.94
64133;BME280;53116;52.020;4.446;2022-09-16T15:08:41;101250.31;;;21.63;46.36
64133;BME280;53116;52.020;4.446;2022-09-16T15:11:11;101244.53;;;21.58;46.78